createdAt,value
2018-03-23T00:00:17.605Z,34.73
2018-03-23T00:02:45.807Z,39.13
2018-03-23T00:05:14.117Z,31.40
2018-03-23T00:07:43.196Z,39.13
2018-03-23T00:10:11.405Z,33.07
2018-03-23T00:12:39.658Z,32.87
2018-03-23T00:15:08.633Z,37.30
2018-03-23T00:17:36.843Z,40.30
2018-03-23T00:20:05.082Z,33.50
2018-03-23T00:22:33.390Z,34.60
2018-03-23T00:25:02.371Z,31.17
2018-03-23T00:27:30.861Z,30.13
2018-03-23T00:29:59.132Z,34.20
2018-03-23T00:32:27.323Z,33.27
2018-03-23T00:34:56.318Z,31.00
2018-03-23T00:37:24.523Z,31.67
2018-03-23T00:39:53.820Z,27.57
2018-03-23T00:42:22.129Z,31.77
2018-03-23T00:44:50.419Z,31.30
2018-03-23T00:47:18.806Z,37.10
2018-03-23T00:49:47.097Z,29.83
2018-03-23T00:52:16.066Z,34.00
2018-03-23T00:54:44.416Z,34.73
2018-03-23T00:57:12.696Z,37.97
2018-03-23T00:59:40.871Z,31.23
2018-03-23T01:02:09.107Z,33.83
2018-03-23T01:04:37.601Z,30.33
2018-03-23T01:07:05.875Z,41.13
2018-03-23T01:09:34.235Z,32.33
2018-03-23T01:12:02.514Z,29.53
2018-03-23T01:14:30.769Z,31.10
2018-03-23T01:16:58.941Z,30.73
2018-03-23T01:19:28.033Z,38.17
2018-03-23T01:21:56.232Z,33.30
2018-03-23T01:24:25.194Z,35.33
2018-03-23T01:26:53.437Z,33.63
2018-03-23T01:29:21.644Z,32.07
2018-03-23T01:31:49.885Z,39.80
2018-03-23T01:34:18.196Z,35.53
2018-03-23T01:36:46.701Z,40.07
2018-03-23T01:39:15.705Z,37.40
2018-03-23T01:41:45.235Z,39.67
2018-03-23T01:44:13.450Z,34.63
2018-03-23T01:46:41.666Z,39.07
2018-03-23T01:49:09.873Z,43.00
2018-03-23T01:51:38.125Z,35.63
2018-03-23T01:54:06.442Z,48.90
2018-03-23T01:56:34.771Z,43.83
2018-03-23T01:59:02.964Z,71.90
2018-03-23T02:01:31.245Z,60.53
2018-03-23T02:03:59.509Z,73.93
2018-03-23T02:06:27.718Z,43.80
2018-03-23T02:08:56.203Z,56.37
2018-03-23T02:11:24.529Z,48.80
2018-03-23T02:13:52.744Z,73.33
2018-03-23T02:16:20.948Z,47.30
2018-03-23T02:18:50.039Z,54.20
2018-03-23T02:21:18.303Z,59.27
2018-03-23T02:23:46.501Z,59.90
2018-03-23T02:26:15.639Z,64.20
2018-03-23T02:28:44.639Z,63.53
2018-03-23T02:31:12.914Z,56.63
2018-03-23T02:33:41.121Z,67.13
2018-03-23T02:36:09.327Z,66.20
2018-03-23T02:38:38.301Z,60.40
2018-03-23T02:41:06.590Z,83.63
2018-03-23T02:43:34.802Z,75.87
2018-03-23T02:46:03.047Z,62.17
2018-03-23T02:48:32.038Z,79.43
2018-03-23T02:51:01.134Z,64.97
2018-03-23T02:53:30.124Z,52.00
2018-03-23T02:55:59.184Z,77.40
2018-03-23T02:58:27.564Z,57.97
2018-03-23T03:00:55.789Z,50.63
2018-03-23T03:03:24.074Z,64.70
2018-03-23T03:05:52.352Z,57.17
2018-03-23T03:08:20.589Z,65.57
2018-03-23T03:10:48.820Z,53.53
2018-03-23T03:13:17.006Z,66.47
2018-03-23T03:15:45.213Z,70.27
2018-03-23T03:18:13.538Z,62.60
2018-03-23T03:20:42.488Z,58.57
2018-03-23T03:23:11.839Z,72.83
2018-03-23T03:25:40.064Z,71.70
2018-03-23T03:28:08.291Z,83.50
2018-03-23T03:30:36.620Z,68.00
2018-03-23T03:33:04.918Z,65.60
2018-03-23T03:35:33.156Z,80.27
2018-03-23T03:38:02.123Z,51.17
2018-03-23T03:40:30.387Z,59.47
2018-03-23T03:42:58.581Z,67.53
2018-03-23T03:45:26.881Z,55.13
2018-03-23T03:47:55.876Z,68.33
2018-03-23T03:50:24.084Z,63.27
2018-03-23T03:52:52.304Z,66.50
2018-03-23T03:55:20.550Z,53.13
2018-03-23T03:57:48.851Z,60.30
2018-03-23T04:00:17.055Z,59.13
2018-03-23T04:02:45.341Z,76.40
2018-03-23T04:05:14.304Z,80.30
2018-03-23T04:07:43.329Z,62.93
2018-03-23T04:10:12.354Z,72.93
2018-03-23T04:12:40.562Z,69.63
2018-03-23T04:15:08.767Z,69.70
2018-03-23T04:17:37.828Z,70.43
2018-03-23T04:20:06.031Z,81.63
2018-03-23T04:22:34.236Z,80.00
2018-03-23T04:25:02.478Z,71.73
2018-03-23T04:27:30.672Z,59.90
2018-03-23T04:29:59.674Z,58.80
2018-03-23T04:32:28.663Z,86.80
2018-03-23T04:34:57.644Z,89.07
2018-03-23T04:37:25.917Z,81.80
2018-03-23T04:39:54.820Z,67.97
2018-03-23T04:42:22.970Z,83.83
2018-03-23T04:44:51.216Z,89.43
2018-03-23T04:47:19.465Z,104.00
2018-03-23T04:49:47.757Z,63.07
2018-03-23T04:52:16.026Z,82.27
2018-03-23T04:54:44.305Z,74.03
2018-03-23T04:57:12.548Z,75.33
2018-03-23T04:59:41.510Z,84.47
2018-03-23T05:02:09.888Z,75.37
2018-03-23T05:04:38.072Z,82.20
2018-03-23T05:07:06.360Z,56.73
2018-03-23T05:09:35.380Z,67.50
2018-03-23T05:12:04.380Z,62.50
2018-03-23T05:14:32.585Z,78.27
2018-03-23T05:17:02.062Z,61.30
2018-03-23T05:19:30.312Z,60.00
2018-03-23T05:21:59.381Z,69.43
2018-03-23T05:24:27.626Z,61.50
2018-03-23T05:26:55.933Z,60.67
2018-03-23T05:29:24.156Z,84.13
2018-03-23T05:31:52.791Z,71.53
2018-03-23T05:34:21.975Z,85.47
2018-03-23T05:36:51.278Z,97.13
2018-03-23T05:39:19.717Z,88.63
2018-03-23T05:41:47.992Z,79.40
2018-03-23T05:44:16.317Z,101.27
2018-03-23T05:46:44.670Z,72.77
2018-03-23T05:49:12.960Z,57.13
2018-03-23T05:51:41.217Z,54.10
2018-03-23T05:54:09.473Z,62.40
2018-03-23T05:56:37.670Z,80.30
2018-03-23T05:59:05.878Z,52.67
2018-03-23T06:01:34.533Z,65.00
2018-03-23T06:04:04.555Z,58.00
2018-03-23T06:06:33.020Z,63.00
2018-03-23T06:09:02.216Z,71.63
2018-03-23T06:11:30.482Z,75.77
2018-03-23T06:13:58.723Z,65.47
2018-03-23T06:16:27.005Z,69.43
2018-03-23T06:18:55.309Z,55.20
2018-03-23T06:21:23.511Z,90.63
2018-03-23T06:23:52.617Z,69.17
2018-03-23T06:26:20.854Z,59.97
2018-03-23T06:28:49.837Z,63.60
2018-03-23T06:31:18.860Z,56.13
2018-03-23T06:33:47.057Z,59.47
2018-03-23T06:36:15.305Z,55.67
2018-03-23T06:38:43.704Z,64.77
2018-03-23T06:41:11.898Z,77.27
2018-03-23T06:43:40.285Z,64.03
2018-03-23T06:46:09.717Z,68.53
2018-03-23T06:48:38.700Z,66.50
2018-03-23T06:51:06.958Z,73.93
2018-03-23T06:53:36.512Z,58.63
2018-03-23T06:56:04.710Z,68.10
2018-03-23T06:58:32.948Z,69.03
2018-03-23T07:01:01.244Z,70.73
2018-03-23T07:03:29.489Z,70.80
2018-03-23T07:05:58.490Z,72.83
2018-03-23T07:08:27.552Z,78.77
2018-03-23T07:10:55.817Z,86.13
2018-03-23T07:13:24.019Z,71.77
2018-03-23T07:15:52.254Z,101.80
2018-03-23T07:18:20.503Z,94.07
2018-03-23T07:20:48.708Z,63.47
2018-03-23T07:23:17.132Z,75.67
2018-03-23T07:25:45.334Z,79.20
2018-03-23T07:28:13.527Z,62.47
2018-03-23T07:30:41.814Z,63.00
2018-03-23T07:33:10.106Z,57.80
2018-03-23T07:35:38.364Z,62.73
2018-03-23T07:38:06.634Z,73.40
2018-03-23T07:40:35.753Z,60.70
2018-03-23T07:43:04.723Z,50.00
2018-03-23T07:45:32.961Z,51.43
2018-03-23T07:48:01.161Z,45.90
2018-03-23T07:50:30.140Z,55.57
2018-03-23T07:53:00.424Z,47.67
2018-03-23T07:55:29.977Z,61.30
2018-03-23T07:57:58.282Z,49.67
2018-03-23T08:00:26.504Z,42.40
2018-03-23T08:02:54.837Z,52.03
2018-03-23T08:05:23.081Z,36.97
2018-03-23T08:07:52.094Z,41.03
2018-03-23T08:10:20.393Z,33.87
2018-03-23T08:12:48.637Z,36.20
2018-03-23T08:15:18.848Z,43.47
2018-03-23T08:17:47.175Z,38.03
2018-03-23T08:20:15.425Z,42.50
2018-03-23T08:22:43.766Z,39.00
2018-03-23T08:25:12.770Z,38.93
2018-03-23T08:27:41.865Z,38.57
2018-03-23T08:30:10.861Z,38.13
2018-03-23T08:32:39.830Z,33.80
2018-03-23T08:35:08.117Z,38.30
2018-03-23T08:37:36.380Z,44.50
2018-03-23T08:40:04.609Z,40.40
2018-03-23T08:42:32.834Z,38.90
2018-03-23T08:45:01.084Z,34.37
2018-03-23T08:47:29.433Z,32.60
2018-03-23T08:49:58.018Z,38.07
2018-03-23T08:52:26.266Z,35.00
2018-03-23T08:54:55.255Z,39.27
2018-03-23T08:57:23.448Z,42.30
2018-03-23T08:59:51.720Z,40.27
2018-03-23T09:02:20.740Z,39.20
2018-03-23T09:04:48.973Z,39.47
2018-03-23T09:07:18.018Z,40.90
2018-03-23T09:09:46.231Z,48.30
2018-03-23T09:12:14.452Z,40.47
2018-03-23T09:14:42.772Z,38.60
2018-03-23T09:17:10.967Z,36.63
2018-03-23T09:19:39.980Z,43.60
2018-03-23T09:22:09.675Z,34.93
2018-03-23T09:24:38.645Z,37.00
2018-03-23T09:27:06.849Z,36.37
2018-03-23T09:32:10.434Z,36.13
2018-03-23T09:34:38.703Z,36.63
2018-03-23T09:37:06.953Z,34.83
2018-03-23T09:39:35.185Z,33.20
2018-03-23T09:42:06.651Z,35.00
2018-03-23T09:44:35.631Z,31.23
2018-03-23T09:47:04.597Z,38.83
2018-03-23T09:49:32.843Z,35.67
2018-03-23T09:52:01.045Z,30.80
2018-03-23T09:54:29.247Z,35.90
2018-03-23T09:56:57.782Z,35.60
2018-03-23T09:59:27.235Z,31.73
2018-03-23T10:01:55.557Z,32.27
2018-03-23T10:04:23.832Z,34.57
2018-03-23T10:06:52.032Z,33.53
2018-03-23T10:09:20.309Z,34.37
2018-03-23T10:11:48.593Z,39.90
2018-03-23T10:14:16.879Z,34.73
2018-03-23T10:16:45.164Z,35.67
2018-03-23T10:19:13.389Z,40.07
2018-03-23T10:21:41.592Z,37.37
2018-03-23T10:24:09.796Z,36.10
2018-03-23T10:26:38.817Z,43.37
2018-03-23T10:29:07.073Z,37.13
2018-03-23T10:31:35.265Z,38.53
2018-03-23T10:34:03.516Z,36.07
2018-03-23T10:36:31.876Z,38.37
2018-03-23T10:39:00.236Z,38.10
2018-03-23T10:41:28.509Z,34.53
2018-03-23T10:43:58.397Z,34.90
2018-03-23T10:46:26.669Z,35.50
2018-03-23T10:48:54.938Z,39.67
2018-03-23T10:51:23.161Z,39.60
2018-03-23T10:53:51.392Z,35.07
2018-03-23T10:56:19.662Z,36.70
2018-03-23T10:58:48.747Z,32.27
2018-03-23T11:01:23.434Z,32.27
2018-03-23T11:03:51.863Z,33.87
2018-03-23T11:06:20.073Z,34.47
2018-03-23T11:08:48.325Z,33.13
2018-03-23T11:11:16.590Z,35.33
2018-03-23T11:13:44.894Z,34.57
2018-03-23T11:16:13.277Z,30.87
2018-03-23T11:18:41.564Z,32.37
2018-03-23T11:21:09.798Z,30.13
2018-03-23T11:23:38.029Z,28.17
2018-03-23T11:26:06.266Z,28.23
2018-03-23T11:28:34.520Z,25.93
2018-03-23T11:31:03.544Z,29.00
2018-03-23T11:33:31.748Z,26.40
2018-03-23T11:36:00.118Z,26.37
2018-03-23T11:38:28.356Z,27.27
2018-03-23T11:40:56.548Z,27.03
2018-03-23T11:43:24.856Z,26.90
2018-03-23T11:45:53.090Z,25.90
2018-03-23T11:48:21.292Z,25.40
2018-03-23T11:50:49.602Z,27.07
2018-03-23T11:53:17.860Z,24.30
2018-03-23T11:55:46.138Z,22.90
2018-03-23T11:58:14.353Z,21.87
2018-03-23T12:00:42.623Z,20.97
2018-03-23T12:03:14.080Z,20.47
2018-03-23T12:05:42.346Z,23.13
2018-03-23T12:08:11.149Z,20.60
2018-03-23T12:10:40.637Z,20.20
2018-03-23T12:13:09.652Z,19.53
2018-03-23T12:15:37.948Z,20.17
2018-03-23T12:18:06.177Z,19.83
2018-03-23T12:20:35.147Z,19.97
2018-03-23T12:23:03.413Z,21.50
2018-03-23T12:25:31.735Z,21.67
2018-03-23T12:28:00.724Z,22.27
2018-03-23T12:30:28.969Z,21.07
2018-03-23T12:32:57.184Z,21.67
2018-03-23T12:35:26.162Z,21.60
2018-03-23T12:37:54.487Z,21.47
2018-03-23T12:40:23.500Z,21.43
2018-03-23T12:42:51.728Z,21.00
2018-03-23T12:45:20.068Z,20.63
2018-03-23T12:47:48.321Z,21.20
2018-03-23T12:50:17.684Z,21.67
2018-03-23T12:52:46.080Z,20.50
2018-03-23T12:55:14.532Z,23.60
2018-03-23T12:57:42.751Z,21.00
2018-03-23T13:00:11.175Z,20.23
2018-03-23T13:02:40.190Z,21.20
2018-03-23T13:05:08.658Z,20.37
2018-03-23T13:07:37.655Z,22.53
2018-03-23T13:10:06.648Z,23.60
2018-03-23T13:12:35.626Z,22.10
2018-03-23T13:15:04.682Z,23.10
2018-03-23T13:17:32.934Z,22.80
2018-03-23T13:20:01.180Z,23.83
2018-03-23T13:22:29.456Z,24.73
2018-03-23T13:24:58.430Z,22.23
2018-03-23T13:27:26.676Z,23.83
2018-03-23T13:29:54.927Z,25.37
2018-03-23T13:32:23.129Z,24.97
2018-03-23T13:34:51.328Z,26.43
2018-03-23T13:37:19.625Z,21.57
2018-03-23T13:39:48.664Z,22.43
2018-03-23T13:44:44.765Z,22.50
2018-03-23T13:47:12.970Z,24.13
2018-03-23T13:49:41.182Z,24.57
2018-03-23T13:52:09.406Z,24.40
2018-03-23T13:54:37.609Z,25.20
2018-03-23T13:57:05.828Z,24.80
2018-03-23T13:59:39.744Z,22.03
2018-03-23T14:02:07.922Z,21.43
2018-03-23T14:04:36.954Z,20.70
2018-03-23T14:07:05.392Z,22.60
2018-03-23T14:09:34.476Z,23.33
2018-03-23T14:12:02.942Z,20.43
2018-03-23T14:14:31.199Z,20.53
2018-03-23T14:16:59.500Z,19.10
2018-03-23T14:19:27.698Z,21.40
2018-03-23T14:21:56.716Z,21.20
2018-03-23T14:24:25.663Z,20.30
2018-03-23T14:26:53.876Z,19.70
2018-03-23T14:29:22.160Z,18.03
2018-03-23T14:31:51.193Z,18.67
2018-03-23T14:34:19.429Z,16.73
2018-03-23T14:36:47.661Z,17.30
2018-03-23T14:39:15.864Z,19.73
2018-03-23T14:41:44.849Z,18.50
2018-03-23T14:44:13.848Z,18.93
2018-03-23T14:46:42.914Z,17.63
2018-03-23T14:49:11.102Z,19.20
2018-03-23T14:54:14.896Z,20.93
2018-03-23T14:56:43.104Z,23.77
2018-03-23T14:59:16.241Z,20.47
2018-03-23T15:01:44.464Z,19.90
2018-03-23T15:04:12.709Z,22.13
2018-03-23T15:06:40.982Z,21.20
2018-03-23T15:09:09.185Z,21.60
2018-03-23T15:11:37.386Z,22.57
2018-03-23T15:14:16.203Z,25.80
2018-03-23T15:16:45.164Z,26.13
2018-03-23T15:19:13.394Z,25.17
2018-03-23T15:21:41.736Z,28.27
2018-03-23T15:24:09.905Z,24.80
2018-03-23T15:26:38.157Z,27.93
2018-03-23T15:29:06.361Z,30.40
2018-03-23T15:31:35.363Z,27.97
2018-03-23T15:34:04.415Z,28.20
2018-03-23T15:36:32.733Z,27.07
2018-03-23T15:39:01.805Z,27.80
2018-03-23T15:41:30.241Z,28.83
2018-03-23T15:43:59.064Z,27.83
2018-03-23T15:46:27.288Z,24.20
2018-03-23T15:48:56.370Z,21.77
2018-03-23T15:51:25.516Z,22.93
2018-03-23T15:53:53.782Z,24.83
2018-03-23T15:56:22.028Z,24.90
2018-03-23T15:58:50.318Z,29.13
2018-03-23T16:01:18.516Z,29.20
2018-03-23T16:03:46.732Z,27.27
2018-03-23T16:06:14.960Z,28.13
2018-03-23T16:08:43.217Z,25.17
2018-03-23T16:11:11.446Z,21.53
2018-03-23T16:13:39.729Z,22.53
2018-03-23T16:16:07.933Z,22.30
2018-03-23T16:18:36.916Z,21.43
2018-03-23T16:21:05.969Z,23.17
2018-03-23T16:23:34.170Z,22.30
2018-03-23T16:26:02.566Z,22.27
2018-03-23T16:28:31.546Z,24.50
2018-03-23T16:30:59.816Z,27.53
2018-03-23T16:33:28.089Z,31.63
2018-03-23T16:35:56.353Z,30.67
2018-03-23T16:38:24.577Z,29.27
2018-03-23T16:40:53.005Z,31.43
2018-03-23T16:43:22.631Z,30.33
2018-03-23T16:45:50.925Z,31.37
2018-03-23T16:48:19.900Z,32.10
2018-03-23T16:50:48.179Z,32.43
2018-03-23T16:53:16.414Z,38.07
2018-03-23T16:55:44.617Z,34.47
2018-03-23T16:58:12.993Z,32.10
2018-03-23T17:00:42.090Z,39.37
2018-03-23T17:03:10.348Z,34.67
2018-03-23T17:05:38.776Z,33.17
2018-03-23T17:08:08.317Z,30.70
2018-03-23T17:10:36.721Z,34.00
2018-03-23T17:13:05.750Z,40.03
2018-03-23T17:15:34.007Z,35.43
2018-03-23T17:18:02.316Z,39.17
2018-03-23T17:20:30.540Z,36.80
2018-03-23T17:22:58.870Z,36.63
2018-03-23T17:25:27.079Z,36.93
2018-03-23T17:27:55.353Z,33.97
2018-03-23T17:30:23.731Z,37.50
2018-03-23T17:32:51.954Z,38.50
2018-03-23T17:35:20.180Z,38.33
2018-03-23T17:37:48.411Z,34.67
2018-03-23T17:40:16.617Z,34.37
2018-03-23T17:42:45.704Z,37.50
2018-03-23T17:45:14.836Z,38.47
2018-03-23T17:47:43.060Z,36.97
2018-03-23T17:50:11.375Z,37.33
2018-03-23T17:52:39.713Z,38.43
2018-03-23T17:55:07.931Z,35.70
2018-03-23T17:57:36.468Z,43.83
2018-03-23T18:00:05.701Z,39.33
2018-03-23T18:02:34.167Z,35.97
2018-03-23T18:05:03.362Z,36.17
2018-03-23T18:07:32.388Z,51.17
2018-03-23T18:10:00.891Z,43.50
2018-03-23T18:12:29.149Z,41.40
2018-03-23T18:14:57.399Z,40.53
2018-03-23T18:17:26.376Z,41.67
2018-03-23T18:19:54.654Z,37.87
2018-03-23T18:22:23.042Z,36.70
2018-03-23T18:25:00.104Z,40.57
2018-03-23T18:27:28.849Z,38.33
2018-03-23T18:29:57.910Z,39.07
2018-03-23T18:32:27.868Z,37.93
2018-03-23T18:34:56.790Z,42.60
2018-03-23T18:37:25.029Z,43.07
2018-03-23T18:39:53.865Z,40.83
2018-03-23T18:42:22.953Z,45.60
2018-03-23T18:44:51.253Z,43.47
2018-03-23T18:47:20.413Z,41.10
2018-03-23T18:49:48.640Z,41.43
2018-03-23T18:52:16.849Z,42.10
2018-03-23T18:54:45.105Z,47.23
2018-03-23T18:57:13.316Z,44.57
2018-03-23T18:59:41.542Z,42.80
2018-03-23T19:02:09.780Z,43.60
2018-03-23T19:04:38.009Z,42.03
2018-03-23T19:07:06.267Z,46.07
2018-03-23T19:09:34.509Z,44.07
2018-03-23T19:12:02.896Z,42.83
2018-03-23T19:14:31.090Z,44.63
2018-03-23T19:17:00.101Z,45.60
2018-03-23T19:19:28.326Z,43.57
2018-03-23T19:21:56.542Z,43.60
2018-03-23T19:24:25.540Z,46.43
2018-03-23T19:26:53.793Z,43.70
2018-03-23T19:29:22.798Z,48.00
2018-03-23T19:31:51.854Z,46.40
2018-03-23T19:34:20.061Z,43.37
2018-03-23T19:36:49.044Z,42.83
2018-03-23T19:39:18.134Z,50.13
2018-03-23T19:41:46.338Z,47.83
2018-03-23T19:44:14.547Z,52.00
2018-03-23T19:46:42.813Z,46.27
2018-03-23T19:49:11.068Z,45.93
2018-03-23T19:51:40.254Z,49.63
2018-03-23T19:54:08.437Z,43.93
2018-03-23T19:56:36.715Z,44.40
2018-03-23T19:59:05.870Z,47.20
2018-03-23T20:01:34.195Z,50.07
2018-03-23T20:04:02.413Z,47.70
2018-03-23T20:06:30.632Z,42.00
2018-03-23T20:08:59.653Z,43.57
2018-03-23T20:11:27.996Z,42.87
2018-03-23T20:14:02.719Z,42.07
2018-03-23T20:16:31.725Z,42.27
2018-03-23T20:19:00.716Z,41.37
2018-03-23T20:21:29.946Z,48.97
2018-03-23T20:24:03.753Z,50.10
2018-03-23T20:26:31.980Z,47.93
2018-03-23T20:29:00.325Z,48.53
2018-03-23T20:31:34.136Z,49.37
2018-03-23T20:34:02.399Z,51.03
2018-03-23T20:36:30.637Z,49.60
2018-03-23T20:38:59.232Z,47.37
2018-03-23T20:41:28.305Z,47.37
2018-03-23T20:43:57.303Z,44.37
2018-03-23T20:46:26.504Z,46.17
2018-03-23T20:48:55.498Z,44.33
2018-03-23T20:51:23.715Z,43.27
2018-03-23T20:53:51.972Z,48.03
2018-03-23T20:56:20.243Z,44.97
2018-03-23T20:58:49.326Z,44.97
2018-03-23T21:01:17.605Z,41.90
2018-03-23T21:03:45.914Z,44.03
2018-03-23T21:06:14.932Z,50.27
2018-03-23T21:08:43.237Z,46.27
2018-03-23T21:11:12.287Z,42.37
2018-03-23T21:13:40.508Z,41.00
2018-03-23T21:16:09.557Z,46.00
2018-03-23T21:18:37.777Z,42.60
2018-03-23T21:21:06.819Z,50.37
2018-03-23T21:23:35.221Z,52.17
2018-03-23T21:26:03.501Z,43.63
2018-03-23T21:28:31.741Z,45.87
2018-03-23T21:30:59.971Z,43.00
2018-03-23T21:33:28.951Z,42.60
2018-03-23T21:35:57.221Z,48.97
2018-03-23T21:38:25.725Z,45.57
2018-03-23T21:40:55.065Z,43.70
2018-03-23T21:43:24.272Z,38.47
2018-03-23T21:45:53.307Z,46.00
2018-03-23T21:48:21.519Z,39.77
2018-03-23T21:50:49.756Z,49.00
2018-03-23T21:53:18.013Z,44.17
2018-03-23T21:55:46.215Z,44.40
2018-03-23T21:58:15.189Z,42.33
2018-03-23T22:00:43.460Z,48.70
2018-03-23T22:03:11.651Z,47.97
2018-03-23T22:05:40.642Z,52.43
2018-03-23T22:08:09.064Z,50.57
2018-03-23T22:10:37.271Z,49.93
2018-03-23T22:13:05.470Z,52.40
2018-03-23T22:15:33.818Z,53.07
2018-03-23T22:18:02.212Z,50.97
2018-03-23T22:20:30.401Z,46.60
2018-03-23T22:22:58.709Z,46.53
2018-03-23T22:25:26.916Z,48.47
2018-03-23T22:27:55.310Z,46.67
2018-03-23T22:30:23.537Z,51.93
2018-03-23T22:32:51.836Z,44.63
2018-03-23T22:35:20.030Z,43.63
2018-03-23T22:37:48.284Z,52.63
2018-03-23T22:40:16.480Z,46.30
2018-03-23T22:42:44.704Z,53.50
2018-03-23T22:45:13.712Z,52.80
2018-03-23T22:47:42.665Z,44.23
2018-03-23T22:50:10.865Z,55.30
2018-03-23T22:52:39.988Z,46.00
2018-03-23T22:55:09.310Z,46.90
2018-03-23T22:57:38.533Z,51.20
2018-03-23T23:00:06.761Z,52.40
2018-03-23T23:02:34.961Z,48.67
2018-03-23T23:05:03.200Z,49.33
2018-03-23T23:07:31.427Z,50.50
2018-03-23T23:09:59.624Z,48.47
2018-03-23T23:12:27.827Z,54.63
2018-03-23T23:14:56.946Z,45.87
2018-03-23T23:17:26.040Z,51.90
2018-03-23T23:19:54.345Z,51.80
2018-03-23T23:22:22.704Z,56.13
2018-03-23T23:24:50.899Z,48.17
2018-03-23T23:27:19.117Z,59.30
2018-03-23T23:29:48.103Z,52.47
2018-03-23T23:32:16.334Z,51.33
2018-03-23T23:34:44.536Z,51.20
2018-03-23T23:37:12.785Z,57.03
2018-03-23T23:39:41.080Z,59.23
2018-03-23T23:42:09.320Z,62.20
2018-03-23T23:44:37.557Z,56.17
2018-03-23T23:47:06.595Z,60.77
2018-03-23T23:49:34.778Z,57.67
2018-03-23T23:52:03.026Z,58.17
2018-03-23T23:54:31.270Z,54.97
2018-03-23T23:56:59.585Z,62.77
2018-03-23T23:59:27.844Z,51.97
